Time;durP1;ratioP1;P1;durP2;ratioP2;P2;SDS_P1;SDS_P2;PMS_P1;PMS_P2;Temp;Humidity;BMP_temperature;BMP_pressure;BME280_temperature;BME280_humidity;BME280_pressure;Samples;Min_cycle;Max_cycle;Signal;HPM_P1;HPM_P2
2023/06/02 00:01:01;;;;;;;9.55;6.57;;;19.80;99.90;;;;;;5011099;28;20092;-50
2023/06/02 00:03:33;;;;;;;9.20;6.20;;;19.90;99.90;;;;;;5010776;28;20072;-51
2023/06/02 00:06:03;;;;;;;;;;;19.90;99.90;;;;;;4995598;28;20049;-51
2023/06/02 00:08:31;;;;;;;9.10;6.22;;;19.90;99.90;;;;;;5073224;28;19905;-50
2023/06/02 00:10:57;;;;;;;8.15;6.32;;;19.90;99.90;;;;;;5072544;28;20115;-50
2023/06/02 00:13:22;;;;;;;9.15;7.03;;;19.90;99.90;;;;;;5037375;28;20033;-49
2023/06/02 00:15:48;;;;;;;10.50;6.63;;;19.90;99.90;;;;;;5072839;28;20460;-51
2023/06/02 00:18:14;;;;;;;7.53;5.57;;;20.00;99.90;;;;;;5072832;28;20081;-50
2023/06/02 00:20:41;;;;;;;7.63;6.03;;;19.90;99.90;;;;;;5073197;28;20039;-50
2023/06/02 00:23:10;;;;;;;6.45;4.93;;;19.60;99.90;;;;;;5072889;28;20033;-50
2023/06/02 00:25:36;;;;;;;8.50;5.10;;;19.10;99.90;;;;;;5071948;28;20384;-50
2023/06/02 00:28:03;;;;;;;7.20;5.15;;;19.10;99.90;;;;;;5071914;28;20106;-49
2023/06/02 00:30:30;;;;;;;7.88;5.95;;;19.10;99.90;;;;;;5072574;28;20047;-49
2023/06/02 00:32:56;;;;;;;10.45;5.45;;;19.20;99.90;;;;;;5072218;28;20373;-49
2023/06/02 00:35:22;;;;;;;6.55;4.72;;;;;;;;;;5072642;28;20028;-49
2023/06/02 00:37:47;;;;;;;8.48;6.15;;;18.70;99.90;;;;;;5052962;28;20037;-49
2023/06/02 00:40:13;;;;;;;6.90;5.18;;;19.00;99.90;;;;;;5072750;28;20051;-49
2023/06/02 00:42:39;;;;;;;8.82;5.32;;;19.00;99.90;;;;;;5069939;28;20082;-49
2023/06/02 00:45:06;;;;;;;8.40;5.13;;;19.10;99.90;;;;;;5071855;28;20493;-49
2023/06/02 00:47:32;;;;;;;7.47;4.72;;;19.00;99.90;;;;;;5053388;28;20050;-50
2023/06/02 00:49:58;;;;;;;6.25;4.93;;;18.90;99.90;;;;;;5020049;28;20032;-49
2023/06/02 00:52:25;;;;;;;7.28;5.53;;;18.90;99.90;;;;;;5072195;28;20040;-49
2023/06/02 00:54:50;;;;;;;7.55;5.60;;;19.00;99.90;;;;;;5072006;28;20021;-49
2023/06/02 00:57:16;;;;;;;10.60;4.95;;;19.00;99.90;;;;;;5069691;28;20399;-49
2023/06/02 00:59:43;;;;;;;7.47;6.00;;;;;;;;;;5053332;28;20119;-49
2023/06/02 01:02:10;;;;;;;7.07;5.53;;;;;;;;;;5069754;28;20032;-50
2023/06/02 01:04:40;;;;;;;7.68;5.72;;;18.60;99.90;;;;;;5071945;28;20473;-49
2023/06/02 01:07:07;;;;;;;9.15;5.93;;;18.60;99.90;;;;;;5037031;28;20040;-49
2023/06/02 01:09:34;;;;;;;7.32;5.63;;;18.60;99.90;;;;;;5072008;28;20021;-50
2023/06/02 01:12:01;;;;;;;11.48;6.20;;;18.60;99.90;;;;;;5036262;28;20041;-49
2023/06/02 01:14:28;;;;;;;7.18;5.35;;;18.80;99.90;;;;;;5071981;28;20048;-50
2023/06/02 01:16:53;;;;;;;7.72;5.70;;;19.00;99.90;;;;;;5071621;28;20066;-50
2023/06/02 01:19:25;;;;;;;7.25;5.25;;;18.70;99.90;;;;;;5071922;28;20068;-50
2023/06/02 01:22:01;;;;;;;8.68;5.50;;;18.60;99.90;;;;;;5069660;28;20434;-50
2023/06/02 01:24:34;;;;;;;9.18;5.57;;;18.80;99.90;;;;;;5052926;28;20048;-50
2023/06/02 01:27:05;;;;;;;8.60;5.60;;;19.00;99.90;;;;;;5071594;28;20135;-49
2023/06/02 01:29:35;;;;;;;10.50;5.90;;;19.10;99.90;;;;;;5072298;28;20041;-49
2023/06/02 01:32:10;;;;;;;8.93;5.82;;;18.90;99.90;;;;;;5071606;28;20033;-50
2023/06/02 01:34:45;;;;;;;7.30;5.00;;;18.70;99.90;;;;;;5071961;28;20056;-50
2023/06/02 01:37:12;;;;;;;9.23;4.97;;;18.70;99.90;;;;;;5071665;28;20483;-50
2023/06/02 01:39:40;;;;;;;10.88;6.20;;;18.80;99.90;;;;;;5074827;28;20120;-51
2023/06/02 01:42:06;;;;;;;7.57;5.57;;;18.90;99.90;;;;;;5075775;28;20033;-50
2023/06/02 01:44:33;;;;;;;8.68;5.70;;;19.00;99.90;;;;;;5075588;28;20095;-51
2023/06/02 01:46:59;;;;;;;9.30;5.65;;;20.20;99.90;;;;;;5075359;28;20028;-50
2023/06/02 01:49:25;;;;;;;7.78;5.65;;;19.10;99.90;;;;;;5056817;28;20056;-49
2023/06/02 01:51:53;;;;;;;7.30;5.80;;;19.30;99.90;;;;;;5075623;28;20059;-51
2023/06/02 01:54:19;;;;;;;9.18;6.07;;;;;;;;;;5073211;28;20475;-50
2023/06/02 01:56:45;;;;;;;7.03;5.53;;;;;;;;;;5075245;28;20119;-50
2023/06/02 01:59:11;;;;;;;8.32;6.13;;;;;;;;;;5075698;28;20063;-50
2023/06/02 02:01:40;;;;;;;11.82;6.45;;;19.30;99.90;;;;;;5075273;28;20033;-51
2023/06/02 02:04:06;;;;;;;10.32;6.28;;;19.50;99.90;;;;;;5075002;28;20127;-49
2023/06/02 02:06:34;;;;;;;8.57;5.85;;;19.40;99.90;;;;;;5075046;28;20043;-52
2023/06/02 02:09:00;;;;;;;9.13;6.05;;;19.50;99.90;;;;;;5075477;28;20475;-50
2023/06/02 02:11:27;;;;;;;8.80;6.40;;;19.30;99.90;;;;;;5075317;28;20028;-50
2023/06/02 02:13:54;;;;;;;9.18;6.35;;;19.30;99.90;;;;;;5075063;28;20029;-50
2023/06/02 02:16:20;;;;;;;12.63;7.38;;;19.20;99.90;;;;;;5074856;28;20043;-49
2023/06/02 02:18:46;;;;;;;8.45;5.95;;;;;;;;;;5056153;28;20544;-49
2023/06/02 02:21:13;;;;;;;7.00;5.40;;;;;;;;;;5056017;28;20109;-51
2023/06/02 02:23:39;;;;;;;7.72;5.10;;;19.00;99.90;;;;;;5072478;28;20048;-50
2023/06/02 02:26:05;;;;;;;7.78;5.55;;;18.40;99.90;;;;;;5074705;28;20033;-52
2023/06/02 02:28:31;;;;;;;8.20;6.00;;;18.10;99.90;;;;;;5074478;28;20129;-52
2023/06/02 02:30:57;;;;;;;13.63;6.60;;;18.40;99.90;;;;;;5074344;28;20527;-52
2023/06/02 02:33:23;;;;;;;9.00;6.75;;;18.60;99.90;;;;;;5074701;28;20108;-50
2023/06/02 02:35:51;;;;;;;10.23;6.43;;;18.80;99.90;;;;;;5074332;28;20445;-49
2023/06/02 02:38:17;;;;;;;8.07;6.30;;;18.80;99.90;;;;;;5075129;28;20044;-51
2023/06/02 02:40:42;;;;;;;7.28;5.72;;;18.80;99.90;;;;;;5074068;28;20098;-50
2023/06/02 02:43:08;;;;;;;7.50;5.50;;;18.90;99.90;;;;;;5074594;28;20024;-50
2023/06/02 02:45:33;;;;;;;8.82;5.72;;;19.00;99.90;;;;;;5074280;28;20123;-52
2023/06/02 02:47:59;;;;;;;7.03;5.55;;;19.10;99.90;;;;;;5074494;28;20486;-49
2023/06/02 02:50:25;;;;;;;6.45;4.72;;;19.20;99.90;;;;;;5071977;28;20086;-50
2023/06/02 02:52:51;;;;;;;8.15;5.90;;;19.20;99.90;;;;;;5074405;28;20086;-50
2023/06/02 02:55:17;;;;;;;8.18;5.43;;;19.00;99.90;;;;;;5074141;28;20028;-52
2023/06/02 02:57:43;;;;;;;8.68;5.80;;;18.70;99.90;;;;;;5073825;28;20064;-49
2023/06/02 03:00:09;;;;;;;6.55;5.22;;;18.70;99.90;;;;;;5074292;28;20461;-49
2023/06/02 03:02:36;;;;;;;8.18;5.63;;;18.80;99.90;;;;;;5055722;28;20094;-50
2023/06/02 03:05:02;;;;;;;8.65;5.18;;;18.90;99.90;;;;;;5074048;28;20031;-49
2023/06/02 03:07:31;;;;;;;7.93;5.38;;;19.00;99.90;;;;;;5074377;28;20028;-49
2023/06/02 03:09:57;;;;;;;7.65;5.28;;;19.00;99.90;;;;;;5074288;28;20031;-50
2023/06/02 03:12:23;;;;;;;9.05;5.43;;;18.90;99.90;;;;;;5071922;28;20037;-52
2023/06/02 03:14:48;;;;;;;6.22;4.85;;;18.80;99.90;;;;;;5073774;28;20024;-49
2023/06/02 03:17:14;;;;;;;9.30;5.00;;;18.80;99.90;;;;;;5073763;28;20041;-49
2023/06/02 03:19:40;;;;;;;7.60;5.60;;;18.90;99.90;;;;;;5054354;28;20129;-51
2023/06/02 03:22:06;;;;;;;7.97;5.90;;;19.10;99.90;;;;;;5073822;28;20031;-52
2023/06/02 03:24:32;;;;;;;11.15;5.65;;;19.20;99.90;;;;;;5073246;28;20379;-53
2023/06/02 03:26:58;;;;;;;8.93;5.70;;;19.20;99.90;;;;;;5073162;28;20045;-49
2023/06/02 03:29:24;;;;;;;7.63;5.38;;;19.20;99.90;;;;;;5073861;28;20039;-49
2023/06/02 03:31:52;;;;;;;8.27;5.40;;;19.10;99.90;;;;;;5073620;28;20033;-50
2023/06/02 03:34:18;;;;;;;7.13;5.32;;;19.00;99.90;;;;;;5073929;28;20055;-49
2023/06/02 03:36:43;;;;;;;8.25;5.95;;;19.10;99.90;;;;;;5073375;28;20068;-50
2023/06/02 03:39:10;;;;;;;9.13;7.13;;;19.30;99.90;;;;;;5073767;28;20548;-52
2023/06/02 03:41:36;;;;;;;9.68;6.55;;;19.60;99.90;;;;;;5073167;28;20024;-51
2023/06/02 03:44:03;;;;;;;8.98;6.50;;;19.60;99.90;;;;;;5073415;28;20025;-50
2023/06/02 03:46:29;;;;;;;9.35;6.68;;;19.50;99.90;;;;;;5073943;28;20033;-51
2023/06/02 03:48:56;;;;;;;8.63;6.30;;;19.70;99.90;;;;;;5073136;28;20052;-49
2023/06/02 03:51:21;;;;;;;7.90;5.90;;;19.80;99.90;;;;;;5073686;28;20028;-50
2023/06/02 03:53:49;;;;;;;7.20;5.60;;;19.70;99.90;;;;;;5073299;28;20037;-50
2023/06/02 03:56:15;;;;;;;8.98;5.95;;;19.70;99.90;;;;;;5073176;28;20025;-50
2023/06/02 03:58:41;;;;;;;7.05;5.60;;;19.70;99.90;;;;;;5073212;28;20056;-49
2023/06/02 04:01:07;;;;;;;8.95;6.65;;;19.80;99.90;;;;;;5072438;28;20059;-50
2023/06/02 04:03:36;;;;;;;7.40;5.70;;;19.80;99.90;;;;;;5070447;28;20029;-52
2023/06/02 04:06:05;;;;;;;8.63;6.22;;;20.10;99.90;;;;;;5072377;28;20028;-50
2023/06/02 04:08:32;;;;;;;8.52;6.70;;;20.00;99.90;;;;;;5054556;28;20039;-49
2023/06/02 04:10:58;;;;;;;11.27;7.05;;;19.90;99.90;;;;;;5072660;28;20032;-49
2023/06/02 04:13:24;;;;;;;7.13;4.88;;;20.00;99.90;;;;;;5072783;28;20107;-49
2023/06/02 04:15:51;;;;;;;8.35;5.43;;;19.80;99.90;;;;;;5072682;28;20094;-50
2023/06/02 04:18:16;;;;;;;6.38;5.05;;;19.40;99.90;;;;;;5072496;28;20086;-50
2023/06/02 04:20:42;;;;;;;6.32;4.90;;;19.70;99.90;;;;;;5071957;28;20413;-50
2023/06/02 04:23:08;;;;;;;7.97;5.68;;;19.70;99.90;;;;;;5070905;28;20388;-50
2023/06/02 04:25:34;;;;;;;7.70;5.50;;;19.60;99.90;;;;;;5071476;28;20117;-50
2023/06/02 04:27:59;;;;;;;9.15;5.63;;;19.80;99.90;;;;;;5071012;28;20570;-50
2023/06/02 04:30:26;;;;;;;7.95;5.55;;;19.90;99.90;;;;;;5035467;28;20364;-50
2023/06/02 04:32:52;;;;;;;9.57;6.85;;;19.90;99.90;;;;;;5070578;28;20499;-50
2023/06/02 04:35:18;;;;;;;9.18;5.90;;;20.00;99.90;;;;;;5072131;28;20028;-50
2023/06/02 04:37:44;;;;;;;9.13;6.60;;;20.10;99.90;;;;;;5071825;28;20438;-49
2023/06/02 04:40:10;;;;;;;10.77;6.30;;;20.10;99.90;;;;;;5069707;28;20047;-50
2023/06/02 04:42:39;;;;;;;9.13;6.80;;;20.10;99.90;;;;;;5032227;28;20033;-49
2023/06/02 04:45:13;;;;;;;10.13;6.85;;;20.20;99.90;;;;;;5048518;28;20033;-49
2023/06/02 04:47:40;;;;;;;9.43;6.63;;;20.20;99.90;;;;;;5046219;28;20121;-50
2023/06/02 04:50:09;;;;;;;9.90;6.82;;;20.20;99.90;;;;;;5048502;28;20024;-49
2023/06/02 04:52:41;;;;;;;8.18;6.75;;;20.20;99.90;;;;;;5048505;28;20044;-50
2023/06/02 04:55:08;;;;;;;12.20;6.63;;;20.20;99.90;;;;;;5048578;28;20083;-51
2023/06/02 04:57:36;;;;;;;8.27;6.30;;;20.30;99.90;;;;;;5004812;28;20091;-49
2023/06/02 05:00:04;;;;;;;8.63;6.72;;;20.30;99.90;;;;;;5036111;28;20041;-51
2023/06/02 05:02:30;;;;;;;9.35;7.00;;;20.40;99.90;;;;;;5029381;28;20088;-51
2023/06/02 05:04:56;;;;;;;10.57;7.28;;;20.40;99.90;;;;;;5046403;28;20435;-50
2023/06/02 05:07:22;;;;;;;10.68;7.07;;;20.40;99.90;;;;;;5048062;28;20052;-50
2023/06/02 05:09:48;;;;;;;10.75;7.45;;;20.50;99.90;;;;;;5046258;28;20041;-50
2023/06/02 05:12:16;;;;;;;9.75;7.22;;;20.50;99.90;;;;;;5047320;28;20400;-51
2023/06/02 05:14:42;;;;;;;11.95;7.40;;;20.40;99.90;;;;;;5049412;28;20045;-50
2023/06/02 05:17:08;;;;;;;11.43;7.72;;;20.50;99.90;;;;;;5045965;28;20552;-50
2023/06/02 05:19:34;;;;;;;11.52;7.38;;;20.40;99.90;;;;;;5054845;28;20051;-50
2023/06/02 05:22:02;;;;;;;9.65;7.00;;;20.60;99.90;;;;;;5070444;28;20020;-50
2023/06/02 05:24:31;;;;;;;9.23;7.00;;;20.40;99.90;;;;;;5048451;28;20377;-50
2023/06/02 05:26:56;;;;;;;10.35;7.20;;;20.40;99.90;;;;;;5069942;28;20067;-50
2023/06/02 05:29:22;;;;;;;9.73;7.15;;;20.40;99.90;;;;;;5070643;28;20476;-50
2023/06/02 05:31:48;;;;;;;13.02;7.97;;;20.60;99.90;;;;;;5071060;28;20056;-51
2023/06/02 05:34:13;;;;;;;10.20;7.63;;;20.80;99.90;;;;;;5071049;28;20063;-50
2023/06/02 05:36:39;;;;;;;11.52;7.15;;;20.70;99.90;;;;;;5064392;28;20041;-50
2023/06/02 05:39:05;;;;;;;12.32;8.10;;;20.70;99.90;;;;;;5059309;28;21157;-50
2023/06/02 05:41:30;;;;;;;10.85;8.30;;;20.80;99.90;;;;;;5071148;28;20376;-50
2023/06/02 05:43:56;;;;;;;11.52;8.40;;;20.70;99.90;;;;;;5049653;28;20064;-50
2023/06/02 05:46:22;;;;;;;12.73;8.48;;;20.90;99.90;;;;;;5050735;28;20039;-50
2023/06/02 05:48:48;;;;;;;14.45;8.23;;;20.80;99.90;;;;;;5068356;28;20480;-50
2023/06/02 05:51:14;;;;;;;18.85;9.10;;;21.00;99.90;;;;;;5069315;28;20177;-49
2023/06/02 05:53:40;;;;;;;13.55;9.43;;;21.10;99.90;;;;;;5060898;28;20495;-49
2023/06/02 05:56:06;;;;;;;12.18;8.70;;;21.30;99.90;;;;;;5019213;28;20045;-50
2023/06/02 05:58:37;;;;;;;15.15;8.93;;;21.40;99.90;;;;;;5048791;28;20513;-50
2023/06/02 06:01:03;;;;;;;14.00;8.73;;;21.40;99.90;;;;;;5048862;28;20036;-49
2023/06/02 06:03:28;;;;;;;15.38;8.65;;;21.40;99.90;;;;;;5049252;28;20043;-49
2023/06/02 06:05:54;;;;;;;13.38;8.90;;;21.40;99.90;;;;;;5054933;28;20560;-49
2023/06/02 06:08:20;;;;;;;12.20;8.85;;;21.40;99.90;;;;;;5038590;28;20037;-50
2023/06/02 06:10:46;;;;;;;13.85;9.15;;;21.50;99.90;;;;;;5069001;28;20029;-49
2023/06/02 06:13:11;;;;;;;11.27;8.82;;;21.70;99.90;;;;;;5068907;28;20078;-50
2023/06/02 06:15:37;;;;;;;12.20;8.65;;;21.60;99.90;;;;;;5018850;28;20033;-50
2023/06/02 06:18:04;;;;;;;11.93;8.27;;;;;;;;;;5068965;28;20076;-50
2023/06/02 06:20:30;;;;;;;13.32;8.90;;;22.20;99.90;;;;;;5019581;28;20051;-49
2023/06/02 06:22:56;;;;;;;15.15;9.48;;;22.20;99.90;;;;;;5069034;28;20101;-50
2023/06/02 06:25:22;;;;;;;12.30;8.98;;;22.10;99.90;;;;;;5073142;28;20484;-49
2023/06/02 06:27:47;;;;;;;14.25;9.05;;;22.30;99.90;;;;;;5089176;28;20052;-52
2023/06/02 06:30:13;;;;;;;11.52;8.70;;;22.40;99.90;;;;;;5074801;28;20035;-50
2023/06/02 06:32:39;;;;;;;11.73;8.48;;;22.10;99.90;;;;;;5089177;28;20032;-50
2023/06/02 06:35:05;;;;;;;11.15;8.02;;;22.30;99.90;;;;;;5074707;28;20021;-50
2023/06/02 06:37:31;;;;;;;13.43;8.27;;;;;;;;;;5074586;28;20448;-49
2023/06/02 06:39:57;;;;;;;13.70;9.38;;;22.60;99.90;;;;;;5074409;28;20199;-50
2023/06/02 06:42:22;;;;;;;14.60;9.45;;;22.70;99.90;;;;;;5074936;28;20115;-50
2023/06/02 06:44:50;;;;;;;15.18;8.77;;;22.70;99.90;;;;;;5074153;28;20078;-50
2023/06/02 06:47:16;;;;;;;11.43;8.73;;;22.50;99.90;;;;;;5074425;28;20024;-51
2023/06/02 06:49:42;;;;;;;14.32;9.73;;;22.30;99.90;;;;;;5074636;28;20033;-52
2023/06/02 06:52:08;;;;;;;12.88;8.90;;;22.40;99.90;;;;;;5074679;28;20024;-51
2023/06/02 06:54:33;;;;;;;14.07;9.88;;;22.30;99.90;;;;;;5074153;28;20016;-49
2023/06/02 06:56:59;;;;;;;11.63;8.82;;;22.70;99.90;;;;;;5071974;28;20048;-49
2023/06/02 06:59:25;;;;;;;11.40;8.88;;;;;;;;;;5074660;28;20122;-50
2023/06/02 07:01:51;;;;;;;11.00;8.55;;;;;;;;;;5074077;28;20029;-50
2023/06/02 07:04:17;;;;;;;11.32;8.45;;;;;;;;;;5072097;28;20039;-50
2023/06/02 07:06:43;;;;;;;11.25;8.43;;;23.60;99.90;;;;;;5074001;28;20028;-49
2023/06/02 07:09:10;;;;;;;12.50;7.68;;;23.50;99.90;;;;;;5074594;28;20029;-50
2023/06/02 07:11:36;;;;;;;15.70;8.68;;;23.70;99.90;;;;;;5074072;28;20086;-53
2023/06/02 07:14:02;;;;;;;14.88;8.98;;;;;;;;;;5055136;28;20029;-49
2023/06/02 07:16:28;;;;;;;11.45;8.60;;;24.10;99.90;;;;;;5070810;28;20090;-49
2023/06/02 07:18:53;;;;;;;10.95;8.43;;;24.20;99.90;;;;;;5073047;28;20422;-52
2023/06/02 07:21:20;;;;;;;11.20;8.60;;;24.30;99.90;;;;;;5073946;28;20029;-50
2023/06/02 07:23:45;;;;;;;11.13;8.45;;;24.20;99.90;;;;;;5071620;28;20032;-51
2023/06/02 07:26:11;;;;;;;11.45;8.98;;;24.40;99.90;;;;;;5073354;28;20082;-50
2023/06/02 07:28:38;;;;;;;10.40;7.82;;;24.60;99.90;;;;;;5054447;28;20048;-50
2023/06/02 07:31:05;;;;;;;11.23;7.75;;;;;;;;;;5073905;28;20029;-50
2023/06/02 07:33:31;;;;;;;10.68;8.27;;;;;;;;;;5071330;28;20522;-50
2023/06/02 07:35:57;;;;;;;9.10;7.47;;;;;;;;;;5063788;28;20032;-50
2023/06/02 07:38:23;;;;;;;10.50;7.85;;;;;;;;;;5073384;28;20736;-50
2023/06/02 07:40:49;;;;;;;9.48;8.15;;;;;;;;;;5073661;28;20025;-50
2023/06/02 07:43:15;;;;;;;8.95;7.60;;;;;;;;;;5073555;28;20120;-50
2023/06/02 07:45:41;;;;;;;9.32;7.53;;;;;;;;;;5084619;28;20048;-51
2023/06/02 07:48:08;;;;;;;11.00;7.53;;;;;;;;;;5072481;28;20032;-50
2023/06/02 07:50:34;;;;;;;11.20;9.15;;;;;;;;;;5088081;28;20399;-50
2023/06/02 07:53:02;;;;;;;10.43;8.82;;;;;;;;;;5070922;28;20036;-50
2023/06/02 07:55:29;;;;;;;11.70;8.05;;;;;;;;;;5073441;28;20028;-50
2023/06/02 07:57:55;;;;;;;12.70;9.23;;;;;;;;;;5070880;28;20056;-50
2023/06/02 08:00:21;;;;;;;11.45;9.10;;;;;;;;;;5087527;28;20369;-52
2023/06/02 08:02:47;;;;;;;13.60;10.05;;;;;;;;;;5052272;28;20036;-50
2023/06/02 08:05:14;;;;;;;14.07;8.98;;;;;;;;;;5071996;28;20035;-50
2023/06/02 08:07:41;;;;;;;11.23;9.00;;;;;;;;;;5070813;28;20040;-51
2023/06/02 08:10:07;;;;;;;13.35;10.20;;;;;;;;;;5073049;28;20035;-50
2023/06/02 08:12:34;;;;;;;13.13;9.73;;;;;;;;;;5070513;28;20033;-51
2023/06/02 08:15:00;;;;;;;12.38;10.40;;;;;;;;;;5073303;28;20108;-50
2023/06/02 08:17:29;;;;;;;13.88;9.68;;;;;;;;;;5072608;28;20691;-50
2023/06/02 08:19:59;;;;;;;12.60;9.32;;;;;;;;;;5072546;28;20054;-50
2023/06/02 08:22:27;;;;;;;13.50;9.38;;;26.50;99.90;;;;;;5072518;28;20044;-50
2023/06/02 08:24:53;;;;;;;13.40;9.30;;;26.70;99.90;;;;;;5072746;28;20149;-51
2023/06/02 08:27:21;;;;;;;12.10;9.25;;;26.90;99.90;;;;;;5072454;28;20074;-51
2023/06/02 08:29:49;;;;;;;13.75;10.00;;;27.00;99.90;;;;;;5072339;28;20502;-51
2023/06/02 08:32:19;;;;;;;12.30;9.02;;;27.20;99.90;;;;;;5070190;28;20131;-51
2023/06/02 08:34:47;;;;;;;12.18;9.70;;;27.40;99.90;;;;;;5067976;28;20476;-51
2023/06/02 08:37:16;;;;;;;12.40;9.93;;;27.30;99.90;;;;;;5072341;28;20064;-51
2023/06/02 08:39:47;;;;;;;11.48;9.20;;;27.20;99.90;;;;;;5072268;28;20102;-51
2023/06/02 08:42:14;;;;;;;12.18;9.18;;;27.50;99.90;;;;;;5072607;28;20108;-51
2023/06/02 08:44:43;;;;;;;12.45;9.18;;;27.80;99.90;;;;;;5086840;28;20064;-52
2023/06/02 08:47:13;;;;;;;11.48;8.73;;;27.80;99.90;;;;;;5052002;28;20052;-51
2023/06/02 08:49:43;;;;;;;12.82;9.88;;;27.80;99.90;;;;;;5052076;28;20029;-51
2023/06/02 08:52:18;;;;;;;11.02;9.85;;;27.80;99.90;;;;;;5052145;28;20032;-51
2023/06/02 08:54:44;;;;;;;11.90;10.18;;;27.80;99.90;;;;;;5049854;28;20041;-51
2023/06/02 08:57:16;;;;;;;10.38;9.27;;;27.60;99.90;;;;;;5052119;28;20476;-51
2023/06/02 08:59:44;;;;;;;12.45;10.18;;;27.90;99.90;;;;;;5052178;28;20090;-51
2023/06/02 09:02:11;;;;;;;11.05;8.73;;;28.00;99.90;;;;;;5052199;28;20048;-51
2023/06/02 09:04:37;;;;;;;12.88;9.27;;;28.10;99.90;;;;;;5052033;28;20029;-51
2023/06/02 09:07:11;;;;;;;10.43;8.82;;;28.00;99.90;;;;;;5052189;28;20021;-51
2023/06/02 09:09:46;;;;;;;11.80;9.02;;;28.20;99.90;;;;;;5052019;28;20464;-51
2023/06/02 09:12:13;;;;;;;10.32;8.48;;;28.20;99.90;;;;;;5052342;28;20025;-51
2023/06/02 09:14:39;;;;;;;11.80;8.25;;;28.50;99.90;;;;;;5051789;28;20033;-51
2023/06/02 09:17:30;;;;;;;11.70;9.10;;;28.70;99.90;;;;;;5051408;28;20041;-52
2023/06/02 09:20:07;;;;;;;11.63;7.63;;;29.00;99.90;;;;;;5052678;28;20081;-51
2023/06/02 09:22:33;;;;;;;9.20;8.10;;;29.10;99.90;;;;;;5028508;28;20113;-52
2023/06/02 09:24:58;;;;;;;10.43;8.93;;;29.20;99.90;;;;;;5084176;28;20476;-51
2023/06/02 09:27:25;;;;;;;9.30;8.30;;;28.80;99.90;;;;;;5069668;28;20052;-51
2023/06/02 09:30:00;;;;;;;11.23;7.72;;;29.00;99.90;;;;;;5071529;28;20452;-52
2023/06/02 09:32:26;;;;;;;11.20;7.90;;;29.10;99.90;;;;;;5071977;28;20040;-51
2023/06/02 09:34:52;;;;;;;10.30;8.75;;;29.30;99.90;;;;;;5072226;28;20388;-51
2023/06/02 09:37:19;;;;;;;10.35;8.88;;;28.70;99.90;;;;;;5070748;28;20040;-51
2023/06/02 09:39:48;;;;;;;12.25;9.13;;;28.70;99.90;;;;;;5086112;28;20162;-51
2023/06/02 09:42:16;;;;;;;9.93;8.20;;;28.80;99.90;;;;;;5065575;28;20114;-52
2023/06/02 09:45:07;;;;;;;10.13;8.52;;;28.80;99.90;;;;;;5065783;28;20025;-52
2023/06/02 09:47:41;;;;;;;10.13;8.13;;;28.60;99.90;;;;;;5071873;28;20119;-51
2023/06/02 09:50:08;;;;;;;10.85;9.75;;;28.00;99.90;;;;;;5071536;28;20090;-51
2023/06/02 09:52:34;;;;;;;10.23;8.95;;;28.10;99.90;;;;;;5034940;28;20048;-52
2023/06/02 09:55:00;;;;;;;12.60;9.32;;;27.90;99.90;;;;;;5071703;28;20024;-55
2023/06/02 09:57:26;;;;;;;11.75;8.82;;;28.20;99.90;;;;;;5071071;28;20476;-56
2023/06/02 09:59:52;;;;;;;10.77;8.73;;;28.40;99.90;;;;;;5072736;28;20483;-51
2023/06/02 10:02:18;;;;;;;10.73;8.27;;;28.50;99.90;;;;;;5089561;28;20037;-52
2023/06/02 10:04:47;;;;;;;8.00;7.05;;;28.60;99.90;;;;;;5068528;28;20025;-53
2023/06/02 10:07:51;;;;;;;9.43;8.32;;;28.60;99.90;;;;;;5089439;28;20021;-53
2023/06/02 10:10:41;;;;;;;10.25;8.45;;;;;;;;;;5011225;28;20452;-52
2023/06/02 10:13:22;;;;;;;9.25;8.00;;;29.30;99.90;;;;;;4958572;28;20039;-53
2023/06/02 10:15:50;;;;;;;9.85;8.23;;;29.50;99.90;;;;;;4953956;28;20105;-51
2023/06/02 10:18:36;;;;;;;10.48;8.80;;;29.80;99.90;;;;;;4950033;28;20086;-50
2023/06/02 10:21:23;;;;;;;10.73;9.52;;;30.00;99.90;;;;;;4935331;29;20048;-50
2023/06/02 10:24:03;;;;;;;10.90;9.60;;;30.20;99.90;;;;;;4929239;29;20515;-51
2023/06/02 10:27:04;;;;;;;11.73;9.10;;;30.00;99.90;;;;;;4951169;28;20047;-52
2023/06/02 10:29:33;;;;;;;9.90;8.90;;;29.40;99.90;;;;;;4916062;29;20036;-53
2023/06/02 10:32:01;;;;;;;10.38;8.55;;;28.50;99.90;;;;;;4900379;29;20044;-50
2023/06/02 10:34:40;;;;;;;12.23;9.40;;;27.90;99.90;;;;;;4915759;29;20067;-55
2023/06/02 10:37:13;;;;;;;9.88;8.85;;;27.70;99.90;;;;;;4905499;29;20076;-56
2023/06/02 10:39:39;;;;;;;12.13;9.68;;;27.60;99.90;;;;;;4906628;29;20040;-53
2023/06/02 10:42:05;;;;;;;12.15;10.18;;;27.40;99.90;;;;;;4907985;29;20040;-54
2023/06/02 10:44:32;;;;;;;11.60;10.40;;;27.10;99.90;;;;;;4905809;29;20036;-51
2023/06/02 10:47:18;;;;;;;12.13;10.00;;;27.20;99.90;;;;;;4924496;29;20035;-52
2023/06/02 10:49:50;;;;;;;12.32;10.98;;;27.50;99.90;;;;;;4959080;28;20125;-51
2023/06/02 10:52:16;;;;;;;11.48;10.27;;;27.50;99.90;;;;;;5003695;28;20045;-51
2023/06/02 10:54:41;;;;;;;10.88;9.10;;;27.70;99.90;;;;;;5001091;28;20037;-51
2023/06/02 10:57:09;;;;;;;12.02;10.63;;;27.70;99.90;;;;;;4983014;28;20057;-50
2023/06/02 10:59:36;;;;;;;11.77;10.57;;;27.70;99.90;;;;;;4976010;28;20121;-50
2023/06/02 11:02:03;;;;;;;11.68;9.95;;;27.80;99.90;;;;;;4990911;28;20046;-50
2023/06/02 11:04:37;;;;;;;13.27;10.73;;;27.70;99.90;;;;;;4992231;28;20037;-53
2023/06/02 11:07:21;;;;;;;11.05;9.90;;;27.70;99.90;;;;;;5048282;28;20043;-50
2023/06/02 11:09:54;;;;;;;13.25;11.88;;;27.80;99.90;;;;;;5050687;28;20045;-51
2023/06/02 11:12:21;;;;;;;10.80;9.32;;;27.70;99.90;;;;;;5050637;28;20420;-53
2023/06/02 11:15:07;;;;;;;10.63;9.52;;;27.50;99.90;;;;;;5050841;28;20116;-54
2023/06/02 11:17:34;;;;;;;10.05;9.07;;;27.30;99.90;;;;;;4979422;28;20077;-53
2023/06/02 11:20:04;;;;;;;13.40;11.57;;;27.60;99.90;;;;;;4980432;28;20160;-53
2023/06/02 11:22:30;;;;;;;11.70;10.60;;;27.70;99.90;;;;;;4982368;28;20497;-52
2023/06/02 11:24:56;;;;;;;10.32;9.27;;;27.80;99.90;;;;;;4979684;28;20031;-53
2023/06/02 11:27:40;;;;;;;11.30;10.10;;;28.00;99.90;;;;;;4981748;28;20054;-53
2023/06/02 11:30:08;;;;;;;12.02;10.25;;;28.00;99.90;;;;;;4994469;28;20033;-53
2023/06/02 11:32:34;;;;;;;12.50;10.77;;;28.10;99.90;;;;;;5023060;28;20026;-55
2023/06/02 11:35:06;;;;;;;10.90;9.80;;;28.20;99.90;;;;;;5024950;28;20037;-54
2023/06/02 11:37:31;;;;;;;14.27;12.88;;;28.10;99.90;;;;;;4990772;28;20040;-54
2023/06/02 11:39:57;;;;;;;13.60;11.13;;;27.80;99.90;;;;;;5002770;28;20026;-53
2023/06/02 11:42:43;;;;;;;11.50;9.98;;;27.90;99.90;;;;;;4985315;28;20045;-52
2023/06/02 11:45:28;;;;;;;13.93;12.43;;;28.00;99.90;;;;;;4962948;28;20066;-53
2023/06/02 11:47:56;;;;;;;12.05;10.85;;;27.80;99.90;;;;;;4947837;28;20481;-52
2023/06/02 11:50:22;;;;;;;13.45;12.05;;;27.70;99.90;;;;;;4962908;28;20038;-53
2023/06/02 11:52:48;;;;;;;13.88;12.40;;;27.80;99.90;;;;;;4929450;28;20423;-55
2023/06/02 11:55:15;;;;;;;10.48;9.48;;;27.50;99.90;;;;;;4983289;28;20039;-57
2023/06/02 11:57:43;;;;;;;10.90;9.80;;;27.60;99.90;;;;;;4991005;28;20054;-56
2023/06/02 12:00:15;;;;;;;11.48;10.25;;;27.70;99.90;;;;;;4990686;28;20113;-56
2023/06/02 12:02:43;;;;;;;10.77;9.68;;;27.70;99.90;;;;;;4990522;28;20169;-54
2023/06/02 12:05:28;;;;;;;12.55;9.35;;;27.70;99.90;;;;;;4958069;28;20081;-53
2023/06/02 12:07:54;;;;;;;9.55;8.57;;;27.80;99.90;;;;;;4994125;28;20080;-52
2023/06/02 12:10:20;;;;;;;9.65;8.65;;;27.70;99.90;;;;;;4985844;28;20049;-57
2023/06/02 12:12:46;;;;;;;10.10;9.10;;;27.80;99.90;;;;;;5010302;28;20017;-56
2023/06/02 12:15:15;;;;;;;10.73;9.63;;;27.70;99.90;;;;;;5009185;28;20559;-54
2023/06/02 12:17:45;;;;;;;9.55;8.27;;;27.80;99.90;;;;;;4920531;28;20038;-58
2023/06/02 12:20:11;;;;;;;11.73;10.52;;;28.00;99.90;;;;;;4983148;28;20565;-53
2023/06/02 12:22:55;;;;;;;9.88;8.50;;;27.70;99.90;;;;;;5018163;28;20128;-55
2023/06/02 12:25:21;;;;;;;11.68;10.50;;;28.10;99.90;;;;;;5034855;28;20056;-53
2023/06/02 12:27:48;;;;;;;13.63;10.65;;;28.20;99.90;;;;;;5037639;28;20046;-55
2023/06/02 12:30:15;;;;;;;11.88;10.15;;;;;;;;;;4999251;28;20049;-57
2023/06/02 12:32:41;;;;;;;10.30;9.30;;;28.50;99.90;;;;;;5034180;28;20041;-54
2023/06/02 12:35:07;;;;;;;9.95;8.43;;;;;;;;;;5028607;28;20033;-52
2023/06/02 12:37:33;;;;;;;10.35;9.25;;;28.90;99.90;;;;;;5010017;28;20049;-53
2023/06/02 12:39:59;;;;;;;10.57;9.35;;;29.00;99.90;;;;;;5010300;28;20034;-54
2023/06/02 12:42:24;;;;;;;11.57;9.85;;;29.10;99.90;;;;;;5008680;28;20049;-54
2023/06/02 12:44:52;;;;;;;11.77;9.50;;;;;;;;;;4993842;28;20192;-53
2023/06/02 12:47:18;;;;;;;11.77;9.75;;;29.30;99.90;;;;;;5024072;28;20120;-51
2023/06/02 12:49:47;;;;;;;9.77;8.80;;;;;;;;;;5049865;28;20091;-53
2023/06/02 12:52:14;;;;;;;11.60;9.40;;;;;;;;;;5072061;28;20380;-55
2023/06/02 12:54:41;;;;;;;11.90;9.52;;;;;;;;;;5071361;28;20145;-53
2023/06/02 12:57:08;;;;;;;9.40;8.38;;;;;;;;;;5072157;28;20028;-52
2023/06/02 12:59:34;;;;;;;9.40;7.97;;;;;;;;;;5071944;28;20036;-53